Arbyrd, MO (63821)

6:34 PM CST on February 28, 2015 (GMT -0600)
KC0UFP WX | Change Station
CLOSE
Current Station
Personal Weather Station
Location: Kennett, MO
Elevation: 262 ft
Nearby Weather Stations

Elev 262 ft 36.21 °N, 90.07 °W | Updated 7 minutes ago

Mostly Cloudy
Mostly Cloudy
30.7 °F
Feels Like 28 °F
N
3.2
Wind Variable Wind from NNE

Today
High -- | Low -- °F
--% Chance of Precip.
Yesterday
High -- | Low -- °F
Precip. -- in
6:32 AM 5:54 PM
Waxing Gibbous, 81% visible
Pressure 30.43 in
Visibility 10.0 miles
Clouds Scattered Clouds 11000 ft
Windchill 28 °F
Dew Point 26 °F
Humidity 81%
Rainfall 0.00 in
Snow Depth Not available.
UV 0 out of 12
Pollen 4.50 out of 12
Air Quality Not available.
Flu Activity Not available.
METAR KHKA 282353Z AUTO 35008KT 10SM SCT110 01/M03 A3042 RMK AO2 SLP303 T00061028 10028 21006 55020

More Conditions Fewer Conditions

Pressure 30.43 in
Visibility 10.0 miles
Clouds Scattered Clouds 11000 ft
Windchill 28 °F
Dew Point 26 °F
Humidity 81%
Rainfall 0.00 in
Snow Depth Not available.
UV 0 out of 12
Pollen 4.50 out of 12
Air Quality Not available.
Flu Activity Not available.
METAR KHKA 282353Z AUTO 35008KT 10SM SCT110 01/M03 A3042 RMK AO2 SLP303 T00061028 10028 21006 55020

More Conditions Fewer Conditions

10-Day Weather Forecast

Almanac

Astronomy

Feb. 28, 2015 Rise Set
Actual Time
Civil Twilight
Nautical Twilight
Astronomical Twilight
Moon
Length of Visible Light
Length of Day
Tomorrow will be .
, % of the Moon is Illuminated

Today's Extremes

State Highs State Lows

Community

WunderPhotos

Upload Photos

1,801,191 photos uploaded!

WunderBlogs® & News

Nearby

Air Quality

  Air Quality AQ Index Pollutant
Not available.

Snow Depth

Station Depth Elevation

Earthquake Activity

City Distance Mag. Time & Date
Minimum magnitude displayed is 2.5.

Coastal Water Temperatures

Place Temperature

Nearby Weather Stations